Time;durP1;ratioP1;P1;durP2;ratioP2;P2;SDS_P1;SDS_P2;PMS_P1;PMS_P2;Temp;Humidity;BMP_temperature;BMP_pressure;BME280_temperature;BME280_humidity;BME280_pressure;Samples;Min_cycle;Max_cycle;Signal;HPM_P1;HPM_P2
2022/07/08 04:54:52;;;;;;;8.23;1.73;;;;;;;;;;6428233;22;20465;-85
2022/07/08 05:06:49;;;;;;;8.10;1.50;;;;;;;;;;6445170;22;20078;-85
2022/07/08 05:09:19;;;;;;;9.77;1.33;;;;;;;;;;6390676;22;20066;-85
2022/07/08 05:12:25;;;;;;;8.60;2.13;;;;;;;;;;6413676;22;20025;-85
2022/07/08 05:14:55;;;;;;;9.75;1.48;;;;;;;;;;6440943;22;20457;-85
2022/07/08 05:17:41;;;;;;;8.45;1.70;;;;;;;;;;6397154;22;20360;-85
2022/07/08 05:20:57;;;;;;;10.30;1.83;;;;;;;;;;6435575;22;20337;-85
2022/07/08 05:23:25;;;;;;;12.00;2.08;;;;;;;;;;6397708;22;20025;-84
2022/07/08 05:26:17;;;;;;;9.55;1.40;;;;;;;;;;6376857;22;20361;-85
2022/07/08 05:28:53;;;;;;;10.48;2.00;;;;;;;;;;6410099;22;20062;-85
2022/07/08 05:31:30;;;;;;;11.90;1.50;;;;;;;;;;6439401;22;20017;-84
2022/07/08 05:33:57;;;;;;;7.47;1.70;;;;;;;;;;6438257;22;20017;-84
2022/07/08 05:36:25;;;;;;;8.85;1.45;;;;;;;;;;6407856;22;20024;-84
2022/07/08 05:39:19;;;;;;;7.50;1.92;;;;;;;;;;6436384;22;20356;-85
2022/07/08 05:41:48;;;;;;;6.43;1.67;;;;;;;;;;6435134;22;20500;-85
2022/07/08 05:44:15;;;;;;;7.90;1.50;;;;;;;;;;6408324;22;20020;-85
2022/07/08 05:47:10;;;;;;;8.23;1.27;;;;;;;;;;6434625;22;20025;-86
2022/07/08 05:50:27;;;;;;;6.50;1.42;;;;;;;;;;6365208;22;20028;-85
2022/07/08 05:53:21;;;;;;;9.57;1.60;;;;;;;;;;6436522;22;20040;-85
2022/07/08 05:56:13;;;;;;;12.90;1.40;;;;;;;;;;6370977;22;20009;-85
2022/07/08 05:58:45;;;;;;;8.35;1.40;;;;;;;;;;6436872;22;20096;-85
2022/07/08 06:02:42;;;;;;;7.22;1.42;;;;;;;;;;6310294;22;20037;-83
2022/07/08 06:06:15;;;;;;;;;;;;;;;;;;6316687;22;20592;-83
2022/07/08 06:08:43;;;;;;;5.07;1.38;;;;;;;;;;6302416;22;19918;-85
2022/07/08 06:11:11;;;;;;;10.55;2.05;;;;;;;;;;6335128;22;20050;-85
2022/07/08 06:14:39;;;;;;;7.85;1.60;;;;;;;;;;6326565;22;20102;-83
2022/07/08 06:18:52;;;;;;;9.95;1.70;;;;;;;;;;6315221;22;20026;-83
2022/07/08 06:21:45;;;;;;;9.90;1.42;;;;;;;;;;6338464;22;20066;-85
2022/07/08 06:25:47;;;;;;;10.38;1.80;;;;;;;;;;6254049;22;20033;-83
2022/07/08 06:29:53;;;;;;;7.20;1.50;;;;;;;;;;6266188;22;20097;-83
2022/07/08 06:33:29;;;;;;;4.35;1.27;;;;;;;;;;6247723;22;20023;-83
2022/07/08 06:37:27;;;;;;;7.03;1.63;;;;;;;;;;6271141;22;20022;-83
2022/07/08 06:41:35;;;;;;;12.07;2.25;;;;;;;;;;6295548;22;20091;-83
2022/07/08 06:46:12;;;;;;;6.05;2.60;;;;;;;;;;6250542;22;20795;-81
2022/07/08 06:49:08;;;;;;;6.68;2.15;;;;;;;;;;6279493;22;20036;-84
2022/07/08 06:51:35;;;;;;;10.50;1.52;;;;;;;;;;6280101;22;20087;-84
2022/07/08 06:56:53;;;;;;;6.55;1.45;;;;;;;;;;6282370;22;20106;-84
2022/07/08 06:59:21;;;;;;;6.32;0.95;;;;;;;;;;6280450;22;20023;-83
2022/07/08 07:02:13;;;;;;;7.40;2.03;;;;;;;;;;6278388;22;20015;-83
2022/07/08 07:05:07;;;;;;;9.75;1.38;;;;;;;;;;6300740;22;20147;-83
2022/07/08 07:07:34;;;;;;;10.45;1.38;;;;;;;;;;6301478;22;20054;-83
2022/07/08 07:10:02;;;;;;;6.88;1.70;;;;;;;;;;6312010;22;20028;-84
2022/07/08 07:12:29;;;;;;;6.95;1.40;;;;;;;;;;6285838;22;20042;-84
2022/07/08 07:15:02;;;;;;;5.75;1.20;;;;;;;;;;6309599;22;20018;-84
2022/07/08 07:17:29;;;;;;;8.55;1.77;;;;;;;;;;6337643;22;20035;-84
2022/07/08 07:19:58;;;;;;;8.73;1.52;;;;;;;;;;6338075;22;20022;-84
2022/07/08 07:22:31;;;;;;;9.10;1.30;;;;;;;;;;6337529;22;20113;-84
2022/07/08 07:24:59;;;;;;;4.57;0.98;;;;;;;;;;6338240;22;20533;-84
2022/07/08 07:27:31;;;;;;;6.25;1.35;;;;;;;;;;6285872;22;20027;-82
2022/07/08 07:29:59;;;;;;;3.90;1.10;;;;;;;;;;6336525;22;20038;-82
2022/07/08 07:32:31;;;;;;;3.72;1.00;;;;;;;;;;6310354;22;20026;-82
2022/07/08 07:34:59;;;;;;;6.22;1.30;;;;;;;;;;6394355;22;20025;-82
2022/07/08 07:37:51;;;;;;;8.40;1.50;;;;;;;;;;6435533;22;20043;-82
2022/07/08 07:40:23;;;;;;;5.75;1.20;;;;;;;;;;6436537;22;20024;-82
2022/07/08 07:42:51;;;;;;;6.68;1.52;;;;;;;;;;6409015;22;20013;-82
2022/07/08 07:45:30;;;;;;;4.63;1.33;;;;;;;;;;6436899;22;20128;-82
2022/07/08 07:47:57;;;;;;;6.93;1.63;;;;;;;;;;6407390;22;20745;-82
2022/07/08 07:50:26;;;;;;;5.95;1.60;;;;;;;;;;6437395;22;20017;-82
2022/07/08 07:52:53;;;;;;;8.20;1.63;;;;;;;;;;6407836;22;20017;-83
2022/07/08 07:55:21;;;;;;;5.35;1.70;;;;;;;;;;6435801;22;20798;-83
2022/07/08 07:57:49;;;;;;;7.25;1.30;;;;;;;;;;6436513;22;20023;-85
2022/07/08 08:00:35;;;;;;;10.50;1.40;;;;;;;;;;6411999;22;20025;-85
2022/07/08 08:03:36;;;;;;;6.22;1.42;;;;;;;;;;6424919;22;20025;-84
2022/07/08 08:07:54;;;;;;;;;;;;;;;;;;6327521;22;20411;-83
2022/07/08 08:10:36;;;;;;;7.53;1.88;;;;;;;;;;6329963;22;19919;-86
2022/07/08 08:18:16;;;;;;;9.13;1.70;;;;;;;;;;6213497;23;20020;-84
2022/07/08 08:21:24;;;;;;;7.60;1.70;;;;;;;;;;6192441;23;20028;-84
2022/07/08 08:24:06;;;;;;;8.68;1.80;;;;;;;;;;6181293;23;20048;-86
2022/07/08 08:28:34;;;;;;;11.45;1.77;;;;;;;;;;6141095;23;20522;-84
2022/07/08 08:33:13;;;;;;;9.07;1.70;;;;;;;;;;6082951;23;20441;-83
2022/07/08 08:36:31;;;;;;;11.93;2.85;;;;;;;;;;6074228;23;20038;-84
2022/07/08 08:39:17;;;;;;;6.35;1.95;;;;;;;;;;6125264;23;20034;-84
2022/07/08 08:42:09;;;;;;;9.23;2.00;;;;;;;;;;6089472;23;20064;-84
2022/07/08 08:44:49;;;;;;;4.55;1.58;;;;;;;;;;6162944;23;20021;-84
2022/07/08 08:47:25;;;;;;;10.13;2.28;;;;;;;;;;6189707;23;20064;-83
2022/07/08 08:49:55;;;;;;;8.75;1.70;;;;;;;;;;6219170;23;20126;-83
2022/07/08 08:52:38;;;;;;;4.43;1.60;;;;;;;;;;6237072;23;20570;-85
2022/07/08 08:55:33;;;;;;;4.57;1.52;;;;;;;;;;6244060;23;20024;-83
2022/07/08 08:58:25;;;;;;;7.97;1.80;;;;;;;;;;6266091;22;20035;-84
2022/07/08 09:01:23;;;;;;;7.00;1.70;;;;;;;;;;6277109;22;20027;-83
2022/07/08 09:04:12;;;;;;;7.30;1.95;;;;;;;;;;6337121;22;20015;-83
2022/07/08 09:06:53;;;;;;;3.60;1.40;;;;;;;;;;6335908;22;20034;-84
2022/07/08 09:09:35;;;;;;;7.55;2.13;;;;;;;;;;6339635;22;20030;-85
2022/07/08 09:12:22;;;;;;;5.32;1.60;;;;;;;;;;6333027;22;20048;-85
2022/07/08 09:15:04;;;;;;;3.88;1.40;;;;;;;;;;6436562;22;20024;-86
2022/07/08 09:17:45;;;;;;;4.45;1.33;;;;;;;;;;6436523;22;20028;-85
2022/07/08 09:20:19;;;;;;;5.18;1.67;;;;;;;;;;6410019;22;20025;-83
2022/07/08 09:23:01;;;;;;;3.55;1.42;;;;;;;;;;6404094;22;20028;-85
2022/07/08 09:25:52;;;;;;;4.10;1.27;;;;;;;;;;6438577;22;20150;-85
2022/07/08 09:29:08;;;;;;;3.95;1.40;;;;;;;;;;6438866;22;20021;-85
2022/07/08 09:32:42;;;;;;;6.53;1.45;;;;;;;;;;6325090;22;20026;-83
2022/07/08 09:35:11;;;;;;;3.83;1.58;;;;;;;;;;6310573;22;20072;-84
2022/07/08 09:37:41;;;;;;;16.33;2.20;;;;;;;;;;6336738;22;20462;-84
2022/07/08 09:40:18;;;;;;;5.88;1.63;;;;;;;;;;6276105;22;20046;-83
2022/07/08 09:42:56;;;;;;;4.55;1.30;;;;;;;;;;6309154;22;20030;-83
2022/07/08 09:45:43;;;;;;;3.85;1.08;;;;;;;;;;6335773;22;20558;-84
2022/07/08 09:48:26;;;;;;;2.60;1.15;;;;;;;;;;6309508;22;20654;-84
2022/07/08 09:51:08;;;;;;;3.83;1.38;;;;;;;;;;6315335;22;20478;-85
2022/07/08 09:53:49;;;;;;;6.25;1.55;;;;;;;;;;6314481;22;20466;-84
2022/07/08 09:56:27;;;;;;;5.25;1.30;;;;;;;;;;6328722;22;20034;-84
2022/07/08 09:59:07;;;;;;;3.25;1.20;;;;;;;;;;6286861;22;20098;-84
2022/07/08 10:02:00;;;;;;;4.45;1.40;;;;;;;;;;6312143;22;20458;-84
2022/07/08 10:04:46;;;;;;;3.15;1.40;;;;;;;;;;6434083;22;20017;-83
2022/07/08 10:07:46;;;;;;;3.90;1.08;;;;;;;;;;6414380;22;20021;-83
2022/07/08 10:10:13;;;;;;;3.28;1.20;;;;;;;;;;6436846;22;20040;-83
2022/07/08 10:12:42;;;;;;;2.70;1.15;;;;;;;;;;6407885;22;20047;-83
2022/07/08 10:15:10;;;;;;;3.10;1.10;;;;;;;;;;6435440;22;20017;-83
2022/07/08 10:17:43;;;;;;;2.78;1.05;;;;;;;;;;6395978;22;20021;-83
2022/07/08 10:20:13;;;;;;;2.55;1.00;;;;;;;;;;6423963;22;20027;-83
2022/07/08 10:23:09;;;;;;;1.92;1.00;;;;;;;;;;6413566;22;20543;-82
2022/07/08 10:25:38;;;;;;;2.85;1.20;;;;;;;;;;6407250;22;20013;-82
2022/07/08 10:28:07;;;;;;;2.20;0.93;;;;;;;;;;6435788;22;20020;-82
2022/07/08 10:30:50;;;;;;;3.60;1.00;;;;;;;;;;6436000;22;20017;-83
2022/07/08 10:33:25;;;;;;;2.05;0.90;;;;;;;;;;6407476;22;20017;-82
2022/07/08 10:36:23;;;;;;;2.63;1.00;;;;;;;;;;6391904;22;20026;-83
2022/07/08 10:41:58;;;;;;;2.78;1.30;;;;;;;;;;6371579;22;20014;-82
2022/07/08 10:44:49;;;;;;;2.25;0.80;;;;;;;;;;6403972;22;20041;-82
2022/07/08 10:47:31;;;;;;;2.40;1.20;;;;;;;;;;6403200;22;20727;-82
2022/07/08 10:50:08;;;;;;;2.70;1.25;;;;;;;;;;6376336;22;20017;-82
2022/07/08 10:52:42;;;;;;;1.95;1.20;;;;;;;;;;6404113;22;20017;-82
2022/07/08 10:55:14;;;;;;;4.90;1.52;;;;;;;;;;6376417;22;20021;-82
2022/07/08 10:57:55;;;;;;;2.83;1.27;;;;;;;;;;6402157;22;20022;-82
2022/07/08 11:00:24;;;;;;;3.72;1.40;;;;;;;;;;6403741;22;20328;-82
2022/07/08 11:03:17;;;;;;;4.28;1.30;;;;;;;;;;6403280;22;20074;-83
2022/07/08 11:05:56;;;;;;;3.05;1.40;;;;;;;;;;6404238;22;20052;-83
2022/07/08 11:08:24;;;;;;;3.17;1.30;;;;;;;;;;6366731;22;20021;-83
2022/07/08 11:10:58;;;;;;;4.40;1.25;;;;;;;;;;6377214;22;20124;-82
2022/07/08 11:13:26;;;;;;;4.03;1.30;;;;;;;;;;6377905;22;20082;-83
2022/07/08 11:16:00;;;;;;;4.40;1.33;;;;;;;;;;6377007;22;20096;-83
2022/07/08 11:18:28;;;;;;;5.68;1.70;;;;;;;;;;6405262;22;20018;-83
2022/07/08 11:21:19;;;;;;;4.28;1.90;;;;;;;;;;6404653;22;20017;-82
2022/07/08 11:23:52;;;;;;;3.03;1.50;;;;;;;;;;6366623;22;20115;-83
2022/07/08 11:26:21;;;;;;;6.20;1.48;;;;;;;;;;6378033;22;20022;-83
2022/07/08 11:29:17;;;;;;;5.20;1.58;;;;;;;;;;6377047;22;20029;-83
2022/07/08 11:32:03;;;;;;;2.78;1.10;;;;;;;;;;6404550;22;20021;-83
2022/07/08 11:34:32;;;;;;;5.93;1.40;;;;;;;;;;6405508;22;20014;-83
2022/07/08 11:37:01;;;;;;;4.80;1.40;;;;;;;;;;6405010;22;20369;-83
2022/07/08 11:39:34;;;;;;;2.47;1.15;;;;;;;;;;6352853;22;20468;-83
2022/07/08 11:42:02;;;;;;;7.88;1.50;;;;;;;;;;6377116;22;20100;-83
2022/07/08 11:44:30;;;;;;;3.25;1.00;;;;;;;;;;6377147;22;20014;-83
2022/07/08 11:46:57;;;;;;;5.63;1.52;;;;;;;;;;6338935;22;20078;-83
2022/07/08 11:49:25;;;;;;;3.67;1.20;;;;;;;;;;6366339;22;20099;-83
2022/07/08 11:51:55;;;;;;;4.53;1.05;;;;;;;;;;6376725;22;20021;-82
2022/07/08 11:54:29;;;;;;;3.78;0.90;;;;;;;;;;6365820;22;20040;-82
2022/07/08 11:56:59;;;;;;;3.33;1.10;;;;;;;;;;6403909;22;20028;-82
2022/07/08 11:59:34;;;;;;;2.92;0.85;;;;;;;;;;6345439;22;20026;-82
2022/07/08 12:02:04;;;;;;;4.78;1.38;;;;;;;;;;6403728;22;20461;-82
2022/07/08 12:04:32;;;;;;;8.50;1.05;;;;;;;;;;6406002;22;20014;-82
2022/07/08 12:07:22;;;;;;;5.03;0.77;;;;;;;;;;6405574;22;20014;-82
2022/07/08 12:10:00;;;;;;;3.58;0.98;;;;;;;;;;6365878;22;20026;-82
2022/07/08 12:12:30;;;;;;;2.53;0.98;;;;;;;;;;6404987;22;20018;-82
2022/07/08 12:15:12;;;;;;;6.32;1.02;;;;;;;;;;6377748;22;20076;-83
2022/07/08 12:17:39;;;;;;;4.88;1.20;;;;;;;;;;6403496;22;20021;-83
2022/07/08 12:20:11;;;;;;;3.85;1.50;;;;;;;;;;6405292;22;20037;-83
2022/07/08 12:22:45;;;;;;;4.25;1.27;;;;;;;;;;6376999;22;20068;-83
2022/07/08 12:25:16;;;;;;;2.95;1.40;;;;;;;;;;6308937;22;20076;-82
2022/07/08 12:27:54;;;;;;;4.70;1.20;;;;;;;;;;6399409;22;20017;-83
2022/07/08 12:30:29;;;;;;;4.72;1.30;;;;;;;;;;6404184;22;20052;-83
2022/07/08 12:33:06;;;;;;;4.07;1.20;;;;;;;;;;6338798;22;20508;-82
2022/07/08 12:35:48;;;;;;;3.80;1.20;;;;;;;;;;6404416;22;20018;-82
2022/07/08 12:38:39;;;;;;;4.65;1.48;;;;;;;;;;6356737;22;20033;-83
2022/07/08 12:41:31;;;;;;;5.57;1.30;;;;;;;;;;6405832;22;20020;-83
2022/07/08 12:44:33;;;;;;;3.40;1.63;;;;;;;;;;6403724;22;20024;-83
2022/07/08 12:50:06;;;;;;;7.03;1.63;;;;;;;;;;6404527;22;20040;-82
2022/07/08 12:52:33;;;;;;;6.25;1.55;;;;;;;;;;6376937;22;20060;-83
2022/07/08 12:55:26;;;;;;;7.18;2.00;;;;;;;;;;6405574;22;20018;-82
2022/07/08 12:57:54;;;;;;;10.90;1.70;;;;;;;;;;6376024;22;20067;-82
2022/07/08 13:00:21;;;;;;;5.90;1.40;;;;;;;;;;6404597;22;20032;-82
2022/07/08 13:02:49;;;;;;;3.92;1.40;;;;;;;;;;6390838;22;20018;-83
2022/07/08 13:05:21;;;;;;;7.93;2.25;;;;;;;;;;6403652;22;20324;-83
2022/07/08 13:07:49;;;;;;;6.97;1.63;;;;;;;;;;6403343;22;20045;-83
2022/07/08 13:10:21;;;;;;;6.55;1.70;;;;;;;;;;6403514;22;20075;-83
2022/07/08 13:12:49;;;;;;;8.35;1.67;;;;;;;;;;6403247;22;20673;-83
2022/07/08 13:15:21;;;;;;;5.63;1.50;;;;;;;;;;6364725;22;20022;-83
2022/07/08 13:17:49;;;;;;;5.28;1.38;;;;;;;;;;6402522;22;20021;-83
2022/07/08 13:20:17;;;;;;;6.90;1.30;;;;;;;;;;6372461;22;20735;-82
2022/07/08 13:22:45;;;;;;;8.18;1.65;;;;;;;;;;6395544;22;20018;-83
2022/07/08 13:25:13;;;;;;;3.33;1.10;;;;;;;;;;6404056;22;20014;-82
2022/07/08 13:27:44;;;;;;;8.00;1.52;;;;;;;;;;6370062;22;20036;-82
2022/07/08 13:30:37;;;;;;;6.18;1.33;;;;;;;;;;6365596;22;20030;-82
2022/07/08 13:33:05;;;;;;;4.68;1.17;;;;;;;;;;6370320;22;20018;-82
2022/07/08 13:35:57;;;;;;;4.88;1.20;;;;;;;;;;6402405;22;20071;-83
2022/07/08 13:38:25;;;;;;;4.60;1.30;;;;;;;;;;6404686;22;20017;-83
2022/07/08 13:40:53;;;;;;;7.22;1.10;;;;;;;;;;6405405;22;20022;-83
2022/07/08 13:43:22;;;;;;;8.18;1.23;;;;;;;;;;6372356;22;20105;-83
2022/07/08 13:46:15;;;;;;;3.10;1.05;;;;;;;;;;6395453;22;20358;-82
2022/07/08 13:48:47;;;;;;;4.40;1.10;;;;;;;;;;6401400;22;20469;-82
2022/07/08 13:51:29;;;;;;;4.68;1.10;;;;;;;;;;6371371;22;20438;-83
2022/07/08 13:53:57;;;;;;;6.70;1.00;;;;;;;;;;6403587;22;20029;-83
2022/07/08 13:56:29;;;;;;;4.70;0.93;;;;;;;;;;6366081;22;20022;-83
2022/07/08 13:59:02;;;;;;;3.00;0.90;;;;;;;;;;6404756;22;20481;-83
2022/07/08 14:01:35;;;;;;;4.47;1.10;;;;;;;;;;6402271;22;20102;-83
2022/07/08 14:04:10;;;;;;;5.68;1.17;;;;;;;;;;6370873;22;20019;-82
2022/07/08 14:06:37;;;;;;;2.92;1.00;;;;;;;;;;6354256;22;20400;-83
2022/07/08 14:09:09;;;;;;;4.30;1.42;;;;;;;;;;6391938;22;20037;-82
2022/07/08 14:11:43;;;;;;;2.97;1.13;;;;;;;;;;6404246;22;20066;-83
2022/07/08 14:14:11;;;;;;;3.75;1.15;;;;;;;;;;6403898;22;20096;-83
2022/07/08 14:16:39;;;;;;;2.25;1.05;;;;;;;;;;6401875;22;20018;-82
2022/07/08 14:19:07;;;;;;;4.63;1.23;;;;;;;;;;6365126;22;20030;-83
2022/07/08 14:21:40;;;;;;;2.97;1.15;;;;;;;;;;6369782;22;20025;-83
2022/07/08 14:24:07;;;;;;;9.52;1.45;;;;;;;;;;6391337;22;20041;-83
2022/07/08 14:26:39;;;;;;;4.88;1.20;;;;;;;;;;6403098;22;20014;-83
2022/07/08 14:29:07;;;;;;;7.15;1.55;;;;;;;;;;6338877;22;20037;-83
2022/07/08 14:31:35;;;;;;;4.03;1.40;;;;;;;;;;6403054;22;20092;-83
2022/07/08 14:34:03;;;;;;;4.07;1.00;;;;;;;;;;6376346;22;20413;-83
2022/07/08 14:36:31;;;;;;;5.93;1.45;;;;;;;;;;6403834;22;20018;-83
2022/07/08 14:38:59;;;;;;;5.75;1.45;;;;;;;;;;6404308;22;20048;-83
2022/07/08 14:41:27;;;;;;;3.42;1.40;;;;;;;;;;6404750;22;20505;-83
2022/07/08 14:43:59;;;;;;;5.80;1.70;;;;;;;;;;6405292;22;20034;-83
2022/07/08 14:46:51;;;;;;;10.07;1.63;;;;;;;;;;6405405;22;20475;-83
2022/07/08 14:49:24;;;;;;;8.55;1.20;;;;;;;;;;6406598;22;20022;-83
2022/07/08 14:51:56;;;;;;;3.40;1.05;;;;;;;;;;6404327;22;20018;-83
2022/07/08 14:54:23;;;;;;;3.10;1.00;;;;;;;;;;6406226;22;20461;-83
2022/07/08 14:56:53;;;;;;;4.28;1.50;;;;;;;;;;6395124;22;20110;-83
2022/07/08 14:59:26;;;;;;;6.60;1.67;;;;;;;;;;6406480;22;20130;-83
2022/07/08 15:01:53;;;;;;;5.10;1.38;;;;;;;;;;6376895;22;20093;-83
2022/07/08 15:04:47;;;;;;;6.78;1.55;;;;;;;;;;6405594;22;20072;-83
2022/07/08 15:07:15;;;;;;;4.30;1.48;;;;;;;;;;6405279;22;20774;-83
2022/07/08 15:09:47;;;;;;;7.22;1.10;;;;;;;;;;6405483;22;20031;-83
2022/07/08 15:12:15;;;;;;;5.75;1.25;;;;;;;;;;6405626;22;20017;-83
2022/07/08 15:14:43;;;;;;;4.88;1.58;;;;;;;;;;6405288;22;20653;-83
2022/07/08 15:17:12;;;;;;;7.93;1.30;;;;;;;;;;6404268;22;20092;-83
2022/07/08 15:19:39;;;;;;;7.35;1.30;;;;;;;;;;6376873;22;20018;-83
2022/07/08 15:22:07;;;;;;;6.93;1.30;;;;;;;;;;6351221;22;20151;-83
2022/07/08 15:24:36;;;;;;;5.50;1.50;;;;;;;;;;6405329;22;20384;-83
2022/07/08 15:27:06;;;;;;;6.50;1.60;;;;;;;;;;6377665;22;20018;-83
2022/07/08 15:29:38;;;;;;;5.50;1.30;;;;;;;;;;6406015;22;20041;-83
2022/07/08 15:32:29;;;;;;;7.40;1.20;;;;;;;;;;6405186;22;20506;-83
2022/07/08 15:35:21;;;;;;;6.28;1.55;;;;;;;;;;6405561;22;20029;-83
2022/07/08 15:37:49;;;;;;;7.50;1.70;;;;;;;;;;6311307;22;20470;-83
2022/07/08 15:40:17;;;;;;;8.93;2.13;;;;;;;;;;6372183;22;20071;-82
2022/07/08 15:42:45;;;;;;;5.82;1.60;;;;;;;;;;6371967;22;20047;-83
2022/07/08 15:45:25;;;;;;;6.57;1.20;;;;;;;;;;6404975;22;20433;-83
2022/07/08 15:47:54;;;;;;;4.28;1.35;;;;;;;;;;6377728;22;20021;-83
2022/07/08 15:50:22;;;;;;;5.88;1.30;;;;;;;;;;6405168;22;20024;-83
2022/07/08 15:55:43;;;;;;;5.63;1.77;;;;;;;;;;6404404;22;20325;-82
2022/07/08 15:58:12;;;;;;;5.70;1.60;;;;;;;;;;6377015;22;20029;-83
2022/07/08 16:00:45;;;;;;;6.38;1.60;;;;;;;;;;6402958;22;20025;-83
2022/07/08 16:03:13;;;;;;;5.72;1.20;;;;;;;;;;6404519;22;20017;-83
2022/07/08 16:05:41;;;;;;;7.15;1.10;;;;;;;;;;6404072;22;20010;-83
2022/07/08 16:08:12;;;;;;;9.23;1.40;;;;;;;;;;6366104;22;20047;-82
2022/07/08 16:10:39;;;;;;;5.00;1.35;;;;;;;;;;6335239;22;20370;-83
2022/07/08 16:13:13;;;;;;;5.00;1.13;;;;;;;;;;6405208;22;20540;-83
2022/07/08 16:15:42;;;;;;;7.05;1.42;;;;;;;;;;6351623;22;20024;-84
2022/07/08 16:18:09;;;;;;;4.28;1.33;;;;;;;;;;6404740;22;20121;-83
2022/07/08 16:20:37;;;;;;;4.28;1.33;;;;;;;;;;6404389;22;20021;-83
2022/07/08 16:23:08;;;;;;;5.60;1.38;;;;;;;;;;6376426;22;20021;-85
2022/07/08 16:25:56;;;;;;;6.75;1.30;;;;;;;;;;6368390;22;20022;-83
2022/07/08 16:28:27;;;;;;;4.88;1.40;;;;;;;;;;6366457;22;20096;-83
2022/07/08 16:30:56;;;;;;;5.47;1.20;;;;;;;;;;6380945;22;20477;-83
2022/07/08 16:33:23;;;;;;;3.42;1.23;;;;;;;;;;6366320;22;20128;-84
2022/07/08 16:35:52;;;;;;;4.35;1.10;;;;;;;;;;6378408;22;20021;-83
2022/07/08 16:38:25;;;;;;;6.28;1.90;;;;;;;;;;6342470;22;20029;-83
2022/07/08 16:41:24;;;;;;;3.95;1.25;;;;;;;;;;6404057;22;20025;-84
2022/07/08 16:44:16;;;;;;;6.70;1.45;;;;;;;;;;6377202;22;20066;-84
2022/07/08 16:46:50;;;;;;;7.72;1.13;;;;;;;;;;6402429;22;20018;-84
2022/07/08 16:49:18;;;;;;;5.22;1.48;;;;;;;;;;6341591;22;20021;-83
2022/07/08 16:52:10;;;;;;;7.25;1.27;;;;;;;;;;6382120;22;20099;-83
2022/07/08 16:55:17;;;;;;;4.05;1.10;;;;;;;;;;6382716;22;20082;-85
2022/07/08 16:57:45;;;;;;;5.00;1.15;;;;;;;;;;6408599;22;20021;-85
2022/07/08 17:00:13;;;;;;;4.57;1.20;;;;;;;;;;6409922;22;20075;-85
2022/07/08 17:02:46;;;;;;;9.65;1.95;;;;;;;;;;6370237;22;20041;-84
2022/07/08 17:07:08;;;;;;;5.18;2.08;;;;;;;;;;6280709;22;20023;-84
2022/07/08 17:11:57;;;;;;;4.68;1.20;;;;;;;;;;6221289;23;20016;-84
2022/07/08 17:15:40;;;;;;;5.57;1.25;;;;;;;;;;6112859;23;20108;-83
2022/07/08 17:18:14;;;;;;;3.88;1.23;;;;;;;;;;6122748;23;20036;-83
2022/07/08 17:20:44;;;;;;;3.97;1.30;;;;;;;;;;6098901;23;20033;-83
2022/07/08 17:23:13;;;;;;;9.30;1.75;;;;;;;;;;6123133;23;20117;-81
2022/07/08 17:25:41;;;;;;;5.72;1.50;;;;;;;;;;6118164;23;20022;-83
2022/07/08 17:28:09;;;;;;;6.45;1.40;;;;;;;;;;6123341;23;20540;-83
2022/07/08 17:30:37;;;;;;;9.25;1.88;;;;;;;;;;6097795;23;20100;-82
2022/07/08 17:33:06;;;;;;;7.78;1.30;;;;;;;;;;6109689;23;20033;-82
2022/07/08 17:35:34;;;;;;;4.38;1.38;;;;;;;;;;6128238;23;20034;-83
2022/07/08 17:38:01;;;;;;;7.05;2.03;;;;;;;;;;6187602;23;20470;-83
2022/07/08 17:40:33;;;;;;;8.07;1.30;;;;;;;;;;6198471;23;20028;-83
2022/07/08 17:43:01;;;;;;;4.60;1.88;;;;;;;;;;6206231;23;20024;-83
2022/07/08 17:45:30;;;;;;;6.45;1.40;;;;;;;;;;6257890;22;20027;-82
2022/07/08 17:48:05;;;;;;;4.55;1.60;;;;;;;;;;6388353;22;20041;-82
2022/07/08 17:50:33;;;;;;;5.85;1.60;;;;;;;;;;6374971;22;20022;-83
2022/07/08 17:53:05;;;;;;;7.63;1.60;;;;;;;;;;6377063;22;20052;-83
2022/07/08 17:55:33;;;;;;;5.88;1.85;;;;;;;;;;6403261;22;20028;-82
2022/07/08 17:58:05;;;;;;;5.65;1.92;;;;;;;;;;6403102;22;20047;-82
2022/07/08 18:00:33;;;;;;;9.05;2.35;;;;;;;;;;6337466;22;20458;-82
2022/07/08 18:05:53;;;;;;;6.57;1.88;;;;;;;;;;6373321;22;20597;-82
2022/07/08 18:08:24;;;;;;;8.60;2.15;;;;;;;;;;6403137;22;20018;-83
2022/07/08 18:10:52;;;;;;;5.00;1.95;;;;;;;;;;6402771;22;20018;-83
2022/07/08 18:13:19;;;;;;;6.32;1.83;;;;;;;;;;6373146;22;20108;-83
2022/07/08 18:15:47;;;;;;;7.55;1.70;;;;;;;;;;6348091;22;20071;-83
2022/07/08 18:18:15;;;;;;;6.30;1.77;;;;;;;;;;6373362;22;20536;-82
2022/07/08 18:20:43;;;;;;;5.13;1.48;;;;;;;;;;6403952;22;20022;-83
2022/07/08 18:23:15;;;;;;;8.02;1.73;;;;;;;;;;6403244;22;20024;-82
2022/07/08 18:25:43;;;;;;;9.27;1.83;;;;;;;;;;6403876;22;20017;-82
2022/07/08 18:28:15;;;;;;;10.82;2.40;;;;;;;;;;6402859;22;20026;-82
2022/07/08 18:31:10;;;;;;;8.88;2.28;;;;;;;;;;6373486;22;20055;-83
2022/07/08 18:33:43;;;;;;;11.45;3.00;;;;;;;;;;6364581;22;20049;-82
2022/07/08 18:36:11;;;;;;;9.18;2.33;;;;;;;;;;6403411;22;20010;-82
2022/07/08 18:38:39;;;;;;;8.50;2.08;;;;;;;;;;6374405;22;20731;-82
2022/07/08 18:41:07;;;;;;;7.68;2.13;;;;;;;;;;6372847;22;20067;-82
2022/07/08 18:44:26;;;;;;;7.82;2.00;;;;;;;;;;6365317;22;20013;-84
2022/07/08 18:46:57;;;;;;;7.43;2.00;;;;;;;;;;6373758;22;20014;-84
2022/07/08 18:49:25;;;;;;;8.27;2.22;;;;;;;;;;6376009;22;20160;-84
2022/07/08 18:52:00;;;;;;;9.07;2.15;;;;;;;;;;6403443;22;20026;-84
2022/07/08 18:54:29;;;;;;;6.47;2.20;;;;;;;;;;6403754;22;20097;-84
2022/07/08 18:56:57;;;;;;;7.57;2.65;;;;;;;;;;6390796;22;20090;-84
2022/07/08 18:59:48;;;;;;;9.00;2.35;;;;;;;;;;6376294;22;20017;-85
2022/07/08 19:02:29;;;;;;;10.63;3.10;;;;;;;;;;6357938;22;20018;-83
2022/07/08 19:04:57;;;;;;;7.18;2.28;;;;;;;;;;6349046;22;20750;-83
2022/07/08 19:07:49;;;;;;;7.47;2.33;;;;;;;;;;6402747;22;20086;-83
2022/07/08 19:10:19;;;;;;;7.70;2.50;;;;;;;;;;6363870;22;20400;-84
2022/07/08 19:13:02;;;;;;;7.35;2.60;;;;;;;;;;6348553;22;20017;-86
2022/07/08 19:15:50;;;;;;;12.00;2.92;;;;;;;;;;6337611;22;20058;-84
2022/07/08 19:18:21;;;;;;;8.63;2.75;;;;;;;;;;6366554;22;20466;-85
2022/07/08 19:22:03;;;;;;;6.65;3.10;;;;;;;;;;6295279;22;20027;-83
2022/07/08 19:24:36;;;;;;;11.10;2.88;;;;;;;;;;6328420;22;20538;-83
2022/07/08 19:27:04;;;;;;;10.48;2.60;;;;;;;;;;6380085;22;20019;-84
2022/07/08 19:29:32;;;;;;;12.10;3.25;;;;;;;;;;6380350;22;20022;-84
2022/07/08 19:31:59;;;;;;;10.32;3.55;;;;;;;;;;6380394;22;20075;-84
2022/07/08 19:34:31;;;;;;;8.50;2.40;;;;;;;;;;6350058;22;20029;-84
2022/07/08 19:37:03;;;;;;;10.10;3.35;;;;;;;;;;6348323;22;20030;-84
2022/07/08 19:39:32;;;;;;;11.57;3.25;;;;;;;;;;6346858;22;20019;-84
2022/07/08 19:42:05;;;;;;;11.15;2.72;;;;;;;;;;6372470;22;20218;-84
2022/07/08 19:44:37;;;;;;;5.97;2.17;;;;;;;;;;6320314;22;20018;-84
2022/07/08 19:47:05;;;;;;;8.30;2.90;;;;;;;;;;6370364;22;20018;-84
2022/07/08 19:49:49;;;;;;;8.65;2.75;;;;;;;;;;6324142;22;20383;-84
2022/07/08 19:52:31;;;;;;;8.85;2.97;;;;;;;;;;6286017;22;20053;-85
2022/07/08 19:55:34;;;;;;;12.48;2.47;;;;;;;;;;6329526;22;20025;-85
2022/07/08 19:58:21;;;;;;;9.73;3.10;;;;;;;;;;6281825;22;20553;-86
2022/07/08 20:01:08;;;;;;;7.85;2.33;;;;;;;;;;6285427;22;20031;-85
2022/07/08 20:05:40;;;;;;;8.82;2.63;;;;;;;;;;6225400;22;20464;-83
2022/07/08 20:10:36;;;;;;;7.38;2.40;;;;;;;;;;6125490;23;20322;-84
2022/07/08 20:15:33;;;;;;;8.77;3.17;;;;;;;;;;6037689;23;20880;-84
